Rimini, Italy

11:49 PM CEST am 28. April 2017 (GMT +0200)
IEMILIAR120 | | Change Station

Höhe 10 ft 44.14 °N, 12.46 °E | Updated 1 minute ago

Heiter
Heiter
52.9 °F
gefühlte 52.9 °F
N
1.0
Wind Wechselnd Wind aus Südwest
Gusts 3.8 mph

Heute
Max. -- | schwach -- °F
--% Regenrisiko
Gestern
Max. -- | schwach -- °F
Precip. -- inch
Druck 29.86 inch
Sichtweite -9999.0 Meilen
Wolken
Taupunkt 38 °F
Feuchtigkeit 56%
Regen 0.15 inch
Schneehöhe Nicht verfügbar..
6:05 AM 8:10 PM
Erstes Viertel, 9% visible
METAR LIPR 282115Z 20003KT CAVOK 13/09 Q1011
Druck 29.86 inch
Sichtweite -9999.0 Meilen
Wolken
Taupunkt 38 °F
Feuchtigkeit 56%
Regen 0.15 inch
Schneehöhe Nicht verfügbar..
6:05 AM 8:10 PM
Erstes Viertel, 9% visible
METAR LIPR 282115Z 20003KT CAVOK 13/09 Q1011

Get Severe Weather Alerts

Thanks for signing up!

Be on the lookout for a verification email in your inbox.

You'll start receiving the daily forecast at 8 AM.

×

10-Day Weather Forecast

×

Almanac

Astronomie

Apr. 28, 2017 Aufgang Untergang
Genaue Zeit
Bürgerliche Dämmerung
Nautische Dämmerung
Astronomische Dämmerung
Mond
Länge des sichtbaren Lichts
Tageslänge
Tomorrow will be .
, % of the Moon is Illuminated

Heutige Rekorde

Country Highs Country Lows

Community

WunderPhotos

WunderBlog® & News

Nearby

Luftqualität

  Luftqualität LQ Index Schadstoff
Not available.

Schneehöhe

Station Depth Höhe

Erdbebenaktivität

Stadt Distance Mag. Time & Date
Minimum magnitude displayed is 2.5.

küstennahe Wassertemperaturen

Ort Temperatur

Stations

Wetterstationen in der Umgebung

Stationsstandort Temp. Windchill Taupunkt Feuchtigkeit Wind Precip. Höhe Aktualisiert Art